NC88 weather

Outer Banks Heliport
Nags Head, North Carolina, United States

Public forecast

Using degrees Fahrenheit for public forecast. Weather courtesy of forecast.io.

Closest aviation weather report (METAR) to Outer Banks Heliport

Closest report is First Flight Airport, 2.3 nm (4.3 km) NNW. Retrieved 2020/03/28 15:15 UTC (0 seconds ago):

KFFA 281515Z AUTO 00000KT 10SM CLR 22/17 A2996 RMK AO2 T02150168

Closest aviation forecast (TAF) to Outer Banks Heliport

Closest forecast is Elizabeth City Regional Airport & Coast Guard Air Station, 30.4 nm (56.3 km) WNW. Retrieved 2020/03/28 13:09 UTC (2 hours ago):

TAF KECG 281303Z 2813/2912 13004KT 1/4SM FG VV002 TEMPO 2813/2814 1SM BR BKN002 FM281400 14007KT 2SM BR SCT003 BKN007 FM281500 17008KT P6SM SCT015 BKN060 FM281900 19009KT P6SM BKN200 FM290400 21008KT P6SM SCT250